Main page
METAR-TAF:

METAR-TAF

Airports :

Johannesburg, South Africa

latitude: 26-09S, longitude: 28-00E, elevation: 1626 m

Current weather observation

The report was made 14 minutes ago, at 23:00 UTC
Wind 1 kt from the South/Southwest
Temperature 6°C
Humidity 81%
Pressure 1034 hPa

METAR: FAJB 232300Z AUTO 20001KT //// // ////// 06/03 Q1034

Time: 01:14 (23:14 UTC)


TAF: missing

Weather observations and forecasts of more than 4000 airports (METAR and TAF reports).

The available stations are represented by yellow and red dots on the map.

Hover mouse over dot to see the name of the station.

Then click to see weather observations and forecasts.

To change the map : click on the green buttons with a black cross to zoom in, on the green button with a dash to zoom out, or on the green arrows for adjacent maps.


METAR-TAF: